createdAt,value
2022-08-11T00:01:08.931Z,13.00
2022-08-11T00:03:43.432Z,12.10
2022-08-11T00:06:13.964Z,12.77
2022-08-11T00:08:42.383Z,12.90
2022-08-11T00:11:12.332Z,12.80
2022-08-11T00:13:42.096Z,12.97
2022-08-11T00:16:14.593Z,12.77
2022-08-11T00:18:44.046Z,13.83
2022-08-11T00:21:12.770Z,13.80
2022-08-11T00:23:43.621Z,13.20
2022-08-11T00:26:13.286Z,13.20
2022-08-11T00:28:41.675Z,13.60
2022-08-11T00:31:10.844Z,12.17
2022-08-11T00:33:41.129Z,13.23
2022-08-11T00:36:22.006Z,12.67
2022-08-11T00:38:53.995Z,12.60
2022-08-11T00:41:33.030Z,12.13
2022-08-11T00:44:37.730Z,11.80
2022-08-11T00:47:18.617Z,12.10
2022-08-11T00:50:05.640Z,12.60
2022-08-11T00:53:10.791Z,12.17
2022-08-11T00:56:21.193Z,11.50
2022-08-11T00:59:36.341Z,11.50
2022-08-11T01:02:17.458Z,11.23
2022-08-11T01:05:15.332Z,11.53
2022-08-11T01:08:27.866Z,11.53
2022-08-11T01:11:24.883Z,11.60
2022-08-11T01:14:26.123Z,11.67
2022-08-11T01:17:43.013Z,11.87
2022-08-11T01:20:47.573Z,12.60
2022-08-11T01:23:41.198Z,12.73
2022-08-11T01:26:53.544Z,12.33
2022-08-11T01:29:39.416Z,12.73
2022-08-11T01:32:36.164Z,13.40
2022-08-11T01:35:22.614Z,12.40
2022-08-11T01:38:28.924Z,12.13
2022-08-11T01:41:24.122Z,11.67
2022-08-11T01:44:22.785Z,12.20
2022-08-11T01:46:53.435Z,12.37
2022-08-11T01:49:29.162Z,12.13
2022-08-11T01:52:34.651Z,13.27
2022-08-11T01:55:10.366Z,12.57
2022-08-11T01:57:43.701Z,15.07
2022-08-11T02:00:15.505Z,13.53
2022-08-11T02:02:53.918Z,13.43
2022-08-11T02:05:28.766Z,12.63
2022-08-11T02:08:02.721Z,13.70
2022-08-11T02:10:53.306Z,12.73
2022-08-11T02:13:35.577Z,14.00
2022-08-11T02:16:11.601Z,13.17
2022-08-11T02:19:01.044Z,13.20
2022-08-11T02:21:49.883Z,14.20
2022-08-11T02:24:23.021Z,13.17
2022-08-11T02:26:57.025Z,12.80
2022-08-11T02:29:26.921Z,13.20
2022-08-11T02:32:28.768Z,12.67
2022-08-11T02:35:09.443Z,12.60
2022-08-11T02:37:51.382Z,12.57
2022-08-11T02:40:26.129Z,13.17
2022-08-11T02:43:05.802Z,12.60
2022-08-11T02:45:47.214Z,12.57
2022-08-11T02:48:38.560Z,12.03
2022-08-11T02:51:15.350Z,12.93
2022-08-11T02:53:58.095Z,12.67
2022-08-11T02:56:39.037Z,12.80
2022-08-11T02:59:27.781Z,13.20
2022-08-11T03:02:02.432Z,12.77
2022-08-11T03:04:39.086Z,13.33
2022-08-11T03:07:29.077Z,14.17
2022-08-11T03:10:06.964Z,12.83
2022-08-11T03:13:03.306Z,13.77
2022-08-11T03:16:02.138Z,13.27
2022-08-11T03:18:35.658Z,13.80
2022-08-11T03:21:09.031Z,13.83
2022-08-11T03:23:42.665Z,13.43
2022-08-11T03:26:15.628Z,13.73
2022-08-11T03:28:47.134Z,14.47
2022-08-11T03:31:24.674Z,13.33
2022-08-11T03:34:06.605Z,13.50
2022-08-11T03:37:16.348Z,13.57
2022-08-11T03:39:56.748Z,13.60
2022-08-11T03:42:28.672Z,14.00
2022-08-11T03:45:12.538Z,13.60
2022-08-11T03:47:55.703Z,13.20
2022-08-11T03:50:42.354Z,12.80
2022-08-11T03:53:16.297Z,13.80
2022-08-11T03:56:08.189Z,13.40
2022-08-11T03:58:56.373Z,14.30
2022-08-11T04:01:59.186Z,14.00
2022-08-11T04:04:55.242Z,13.70
2022-08-11T04:07:41.305Z,14.17
2022-08-11T04:10:38.774Z,15.33
2022-08-11T04:13:45.661Z,14.50
2022-08-11T04:16:43.993Z,15.13
2022-08-11T04:19:36.410Z,14.50
2022-08-11T04:22:43.307Z,13.90
2022-08-11T04:25:24.752Z,14.40
2022-08-11T04:28:08.634Z,13.47
2022-08-11T04:31:06.139Z,14.27
2022-08-11T04:33:56.598Z,14.83
2022-08-11T04:36:57.926Z,14.80
2022-08-11T04:39:40.672Z,13.63
2022-08-11T04:42:34.003Z,13.63
2022-08-11T04:45:27.261Z,13.67
2022-08-11T04:48:25.509Z,13.60
2022-08-11T04:51:51.053Z,13.80
2022-08-11T04:54:41.832Z,13.33
2022-08-11T04:57:33.101Z,13.63
2022-08-11T05:00:23.214Z,13.93
2022-08-11T05:03:19.200Z,13.60
2022-08-11T05:06:09.712Z,15.20
2022-08-11T05:08:53.672Z,15.20
2022-08-11T05:11:45.881Z,14.03
2022-08-11T05:14:48.053Z,14.20
2022-08-11T05:17:34.898Z,13.93
2022-08-11T05:20:22.536Z,14.00
2022-08-11T05:23:09.718Z,13.63
2022-08-11T05:26:44.641Z,14.37
2022-08-11T05:29:19.477Z,15.60
2022-08-11T05:32:14.529Z,14.80
2022-08-11T05:34:52.936Z,13.97
2022-08-11T05:37:27.299Z,14.50
2022-08-11T05:40:16.636Z,14.03
2022-08-11T05:43:08.972Z,14.30
2022-08-11T05:46:02.862Z,14.60
2022-08-11T05:48:52.702Z,15.13
2022-08-11T05:51:38.065Z,14.97
2022-08-11T05:54:29.283Z,16.30
2022-08-11T05:57:00.132Z,16.13
2022-08-11T05:59:29.489Z,16.80
2022-08-11T06:02:01.928Z,17.10
2022-08-11T06:04:30.269Z,17.33
2022-08-11T06:06:59.593Z,17.63
2022-08-11T06:09:33.670Z,17.97
2022-08-11T06:12:04.459Z,18.67
2022-08-11T06:14:34.052Z,18.20
2022-08-11T06:17:05.405Z,18.63
2022-08-11T06:19:40.117Z,19.00
2022-08-11T06:22:09.784Z,19.50
2022-08-11T06:24:40.150Z,19.67
2022-08-11T06:27:12.680Z,20.47
2022-08-11T06:29:55.048Z,19.93
2022-08-11T06:32:25.488Z,19.90
2022-08-11T06:35:02.889Z,20.50
2022-08-11T06:37:42.208Z,20.07
2022-08-11T06:40:12.785Z,20.30
2022-08-11T06:42:49.387Z,21.03
2022-08-11T06:45:28.951Z,20.97
2022-08-11T06:48:00.737Z,20.37
2022-08-11T06:50:47.347Z,21.07
2022-08-11T06:53:17.209Z,21.30
2022-08-11T06:56:04.455Z,20.83
2022-08-11T06:58:51.557Z,20.97
2022-08-11T07:01:28.402Z,21.37
2022-08-11T07:04:01.162Z,21.57
2022-08-11T07:06:51.144Z,21.27
2022-08-11T07:10:06.705Z,21.33
2022-08-11T07:12:59.199Z,21.58
2022-08-11T07:16:10.924Z,21.98
2022-08-11T07:18:53.679Z,22.13
2022-08-11T07:22:02.809Z,21.40
2022-08-11T07:25:02.038Z,20.98
2022-08-11T07:27:53.892Z,16.90
2022-08-11T07:30:22.410Z,17.08
2022-08-11T07:32:52.602Z,16.67
2022-08-11T07:35:25.717Z,16.65
2022-08-11T07:38:02.058Z,16.98
2022-08-11T07:40:30.297Z,16.40
2022-08-11T07:42:58.321Z,16.58
2022-08-11T07:45:44.633Z,16.17
2022-08-11T07:48:30.660Z,16.27
2022-08-11T07:51:17.446Z,17.05
2022-08-11T07:53:58.271Z,16.52
2022-08-11T07:56:55.431Z,16.50
2022-08-11T08:00:03.858Z,16.38
2022-08-11T08:02:45.126Z,16.45
2022-08-11T08:05:30.057Z,16.27
2022-08-11T08:08:17.324Z,17.48
2022-08-11T08:11:03.192Z,16.75
2022-08-11T08:13:50.708Z,16.65
2022-08-11T08:16:35.792Z,16.88
2022-08-11T08:19:03.349Z,17.00
2022-08-11T08:21:32.098Z,16.70
2022-08-11T08:24:01.310Z,16.33
2022-08-11T08:26:51.229Z,17.20
2022-08-11T08:29:40.524Z,16.63
2022-08-11T08:32:08.804Z,16.50
2022-08-11T08:34:36.462Z,16.52
2022-08-11T08:37:15.929Z,16.23
2022-08-11T08:39:55.090Z,16.33
2022-08-11T08:42:25.596Z,16.40
2022-08-11T08:44:58.749Z,16.17
2022-08-11T08:47:42.208Z,16.15
2022-08-11T08:50:16.299Z,16.33
2022-08-11T08:52:49.097Z,16.60
2022-08-11T08:55:19.894Z,16.10
2022-08-11T08:57:49.665Z,16.20
2022-08-11T09:00:23.015Z,15.77
2022-08-11T09:02:51.614Z,16.05
2022-08-11T09:05:21.212Z,16.10
2022-08-11T09:07:51.391Z,15.90
2022-08-11T09:10:21.397Z,15.60
2022-08-11T09:12:49.679Z,16.08
2022-08-11T09:15:19.672Z,15.40
2022-08-11T09:17:49.453Z,15.80
2022-08-11T09:20:20.365Z,15.98
2022-08-11T09:26:15.131Z,15.82
2022-08-11T09:28:43.793Z,15.60
2022-08-11T09:31:13.414Z,15.52
2022-08-11T09:33:42.803Z,16.00
2022-08-11T09:36:28.652Z,15.63
2022-08-11T09:39:16.724Z,15.85
2022-08-11T09:42:00.389Z,16.60
2022-08-11T09:44:48.540Z,15.65
2022-08-11T09:47:23.065Z,15.85
2022-08-11T09:49:53.137Z,16.38
2022-08-11T09:52:21.601Z,15.88
2022-08-11T09:54:51.013Z,16.13
2022-08-11T09:57:41.217Z,15.57
2022-08-11T10:00:13.130Z,15.80
2022-08-11T10:02:43.659Z,16.20
2022-08-11T10:05:30.117Z,16.15
2022-08-11T10:07:58.010Z,15.73
2022-08-11T10:10:26.074Z,16.23
2022-08-11T10:12:59.719Z,16.27
2022-08-11T10:15:38.742Z,16.17
2022-08-11T10:18:27.033Z,15.98
2022-08-11T10:20:58.887Z,16.30
2022-08-11T10:24:00.857Z,15.63
2022-08-11T10:26:54.322Z,15.98
2022-08-11T10:29:45.393Z,15.90
2022-08-11T10:32:49.383Z,16.48
2022-08-11T10:35:26.938Z,15.55
2022-08-11T10:38:07.948Z,15.70
2022-08-11T10:40:41.054Z,15.40
2022-08-11T10:43:13.362Z,15.50
2022-08-11T10:46:01.946Z,15.57
2022-08-11T10:48:32.141Z,15.68
2022-08-11T10:51:15.307Z,15.82
2022-08-11T10:54:04.271Z,15.75
2022-08-11T10:56:52.082Z,15.50
2022-08-11T10:59:19.979Z,15.75
2022-08-11T11:01:49.082Z,16.25
2022-08-11T11:04:17.422Z,15.30
2022-08-11T11:06:51.849Z,15.80
2022-08-11T11:09:21.858Z,15.57
2022-08-11T11:12:09.335Z,15.70
2022-08-11T11:14:59.021Z,15.40
2022-08-11T11:17:50.720Z,15.32
2022-08-11T11:20:36.957Z,15.73
2022-08-11T11:23:08.927Z,15.70
2022-08-11T11:25:45.059Z,15.45
2022-08-11T11:28:34.494Z,15.63
2022-08-11T11:31:12.709Z,15.20
2022-08-11T11:34:12.264Z,15.27
2022-08-11T11:36:46.515Z,15.25
2022-08-11T11:39:14.660Z,15.30
2022-08-11T11:41:43.163Z,15.45
2022-08-11T11:44:13.473Z,15.73
2022-08-11T11:46:41.325Z,15.50
2022-08-11T11:49:13.959Z,15.70
2022-08-11T11:51:44.785Z,15.45
2022-08-11T11:54:15.305Z,15.35
2022-08-11T11:56:43.968Z,15.43
2022-08-11T11:59:30.045Z,15.75
2022-08-11T12:01:57.914Z,15.30
2022-08-11T12:04:27.673Z,15.00
2022-08-11T12:07:15.414Z,14.85
2022-08-11T12:09:43.170Z,14.85
2022-08-11T12:12:28.170Z,15.10
2022-08-11T12:14:56.313Z,15.25
2022-08-11T12:17:24.705Z,15.70
2022-08-11T12:19:53.923Z,15.20
2022-08-11T12:22:42.577Z,15.10
2022-08-11T12:25:28.209Z,15.23
2022-08-11T12:27:56.486Z,15.23
2022-08-11T12:30:24.625Z,15.50
2022-08-11T12:32:53.462Z,15.30
2022-08-11T12:35:22.890Z,15.25
2022-08-11T12:38:02.630Z,14.90
2022-08-11T12:44:01.818Z,15.10
2022-08-11T12:46:32.175Z,15.02
2022-08-11T12:49:18.238Z,15.13
2022-08-11T12:52:11.398Z,14.95
2022-08-11T12:54:57.184Z,14.80
2022-08-11T12:57:46.277Z,15.20
2022-08-11T13:00:32.895Z,14.93
2022-08-11T13:03:18.237Z,15.18
2022-08-11T13:05:47.596Z,14.77
2022-08-11T13:08:17.641Z,15.05
2022-08-11T13:11:03.964Z,14.88
2022-08-11T13:13:55.458Z,14.70
2022-08-11T13:16:20.439Z,14.60
2022-08-11T13:18:48.285Z,14.90
2022-08-11T13:21:20.685Z,14.90
2022-08-11T13:24:01.115Z,15.40
2022-08-11T13:26:43.553Z,14.70
2022-08-11T13:29:17.461Z,14.65
2022-08-11T13:31:45.888Z,15.10
2022-08-11T13:34:13.686Z,14.77
2022-08-11T13:36:42.214Z,14.55
2022-08-11T13:39:11.517Z,14.85
2022-08-11T13:41:41.962Z,14.48
2022-08-11T13:44:12.284Z,14.30
2022-08-11T13:46:40.566Z,14.60
2022-08-11T13:49:12.306Z,14.30
2022-08-11T13:51:40.003Z,14.70
2022-08-11T13:54:09.070Z,14.20
2022-08-11T13:56:40.596Z,14.55
2022-08-11T13:59:09.271Z,14.75
2022-08-11T14:02:20.055Z,14.25
2022-08-11T14:04:32.240Z,14.52
2022-08-11T14:07:01.355Z,15.10
2022-08-11T14:09:31.985Z,15.13
2022-08-11T14:12:24.343Z,15.70
2022-08-11T14:15:02.223Z,13.98
2022-08-11T14:17:36.048Z,14.43
2022-08-11T14:20:39.872Z,14.50
2022-08-11T14:23:04.999Z,14.45
2022-08-11T14:26:01.039Z,14.35
2022-08-11T14:28:33.091Z,14.43
2022-08-11T14:31:05.377Z,14.13
2022-08-11T14:34:00.377Z,14.10
2022-08-11T14:36:22.397Z,14.40
2022-08-11T14:38:50.621Z,14.10
2022-08-11T14:41:36.659Z,13.95
2022-08-11T14:44:23.465Z,14.32
2022-08-11T14:47:24.008Z,14.63
2022-08-11T14:50:10.458Z,14.75
2022-08-11T14:52:49.744Z,14.50
2022-08-11T14:55:35.853Z,13.98
2022-08-11T14:58:03.982Z,14.50
2022-08-11T15:00:34.030Z,14.15
2022-08-11T15:03:10.446Z,14.35
2022-08-11T15:05:42.156Z,14.27
2022-08-11T15:08:48.017Z,13.93
2022-08-11T15:11:35.706Z,13.95
2022-08-11T15:14:04.718Z,13.98
2022-08-11T15:16:51.453Z,13.60
2022-08-11T15:19:20.921Z,14.13
2022-08-11T15:22:52.641Z,13.98
2022-08-11T15:25:21.040Z,13.88
2022-08-11T15:28:08.870Z,13.45
2022-08-11T15:30:55.467Z,16.00
2022-08-11T15:33:40.813Z,14.00
2022-08-11T15:36:27.973Z,14.15
2022-08-11T15:38:59.547Z,13.90
2022-08-11T15:41:54.488Z,13.90
2022-08-11T15:45:08.576Z,14.32
2022-08-11T15:47:39.299Z,14.20
2022-08-11T15:50:14.021Z,14.30
2022-08-11T15:52:47.506Z,14.32
2022-08-11T15:55:17.245Z,13.80
2022-08-11T15:58:03.105Z,14.30
2022-08-11T16:00:48.774Z,14.75
2022-08-11T16:04:07.119Z,14.60
2022-08-11T16:06:33.545Z,15.80
2022-08-11T16:09:05.784Z,15.00
2022-08-11T16:11:38.654Z,15.00
2022-08-11T16:14:24.509Z,14.95
2022-08-11T16:16:56.036Z,15.02
2022-08-11T16:19:24.333Z,14.93
2022-08-11T16:21:52.982Z,15.23
2022-08-11T16:27:01.456Z,15.55
2022-08-11T16:27:14.518Z,15.32
2022-08-11T16:29:47.698Z,15.77
2022-08-11T16:32:18.614Z,15.43
2022-08-11T16:35:06.685Z,15.63
2022-08-11T16:37:53.198Z,15.43
2022-08-11T16:40:22.559Z,15.50
2022-08-11T16:43:11.678Z,15.38
2022-08-11T16:45:57.750Z,15.20
2022-08-11T16:48:36.000Z,15.68
2022-08-11T16:51:06.170Z,16.10
2022-08-11T16:54:01.347Z,15.73
2022-08-11T16:56:23.337Z,15.65
2022-08-11T16:59:13.000Z,15.20
2022-08-11T17:01:40.947Z,15.32
2022-08-11T17:04:31.422Z,16.30
2022-08-11T17:07:40.098Z,16.00
2022-08-11T17:10:39.609Z,15.18
2022-08-11T17:13:12.804Z,15.80
2022-08-11T17:16:03.649Z,15.85
2022-08-11T17:18:40.969Z,15.68
2022-08-11T17:21:09.262Z,15.95
2022-08-11T17:23:52.501Z,16.00
2022-08-11T17:26:23.034Z,16.00
2022-08-11T17:28:53.957Z,15.75
2022-08-11T17:31:42.286Z,15.73
2022-08-11T17:34:27.963Z,15.80
2022-08-11T17:36:56.072Z,16.00
2022-08-11T17:39:29.084Z,16.60
2022-08-11T17:42:14.897Z,16.10
2022-08-11T17:45:01.025Z,15.38
2022-08-11T17:47:48.520Z,15.73
2022-08-11T17:50:16.435Z,16.10
2022-08-11T17:53:04.072Z,15.70
2022-08-11T17:55:52.312Z,15.68
2022-08-11T17:58:39.277Z,16.02
2022-08-11T18:01:08.744Z,16.10
2022-08-11T18:03:39.587Z,16.35
2022-08-11T18:06:12.205Z,16.00
2022-08-11T18:09:01.805Z,16.00
2022-08-11T18:12:06.571Z,16.02
2022-08-11T18:14:55.797Z,15.85
2022-08-11T18:17:41.146Z,15.98
2022-08-11T18:20:28.600Z,16.10
2022-08-11T18:23:14.135Z,15.98
2022-08-11T18:26:01.081Z,16.45
2022-08-11T18:28:49.439Z,15.90
2022-08-11T18:31:35.066Z,15.70
2022-08-11T18:34:22.722Z,16.00
2022-08-11T18:37:21.936Z,16.00
2022-08-11T18:40:14.494Z,15.90
2022-08-11T18:43:00.725Z,16.17
2022-08-11T18:45:46.422Z,15.95
2022-08-11T18:48:35.925Z,15.77
2022-08-11T18:51:30.842Z,16.17
2022-08-11T18:54:25.720Z,15.53
2022-08-11T18:57:12.090Z,15.87
2022-08-11T18:59:59.009Z,16.50
2022-08-11T19:02:48.580Z,16.00
2022-08-11T19:06:31.666Z,15.47
2022-08-11T19:08:42.228Z,15.60
2022-08-11T19:11:29.188Z,15.60
2022-08-11T19:14:14.812Z,16.17
2022-08-11T19:17:00.157Z,15.80
2022-08-11T19:19:47.848Z,15.70
2022-08-11T19:22:34.406Z,15.07
2022-08-11T19:25:25.133Z,15.60
2022-08-11T19:28:12.853Z,15.97
2022-08-11T19:30:59.810Z,15.63
2022-08-11T19:34:02.597Z,15.37
2022-08-11T19:36:50.886Z,15.73
2022-08-11T19:39:38.001Z,16.00
2022-08-11T19:42:24.474Z,15.33
2022-08-11T19:45:11.227Z,16.37
2022-08-11T19:48:14.436Z,15.70
2022-08-11T19:51:01.361Z,16.20
2022-08-11T19:53:48.723Z,15.57
2022-08-11T19:56:34.277Z,15.67
2022-08-11T19:59:19.801Z,15.97
2022-08-11T20:02:14.389Z,14.13
2022-08-11T20:05:00.239Z,15.27
2022-08-11T20:07:46.760Z,14.83
2022-08-11T20:10:34.682Z,14.73
2022-08-11T20:13:21.766Z,15.00
2022-08-11T20:16:07.374Z,14.63
2022-08-11T20:18:54.068Z,14.60
2022-08-11T20:21:40.067Z,14.93
2022-08-11T20:24:25.912Z,14.90
2022-08-11T20:27:18.741Z,15.77
2022-08-11T20:30:11.329Z,15.50
2022-08-11T20:32:57.410Z,15.40
2022-08-11T20:35:44.453Z,14.80
2022-08-11T20:38:30.603Z,16.00
2022-08-11T20:41:16.469Z,15.90
2022-08-11T20:44:08.333Z,14.80
2022-08-11T20:46:58.626Z,15.43
2022-08-11T20:49:53.642Z,15.67
2022-08-11T20:52:47.205Z,15.33
2022-08-11T20:55:46.294Z,15.10
2022-08-11T20:59:13.423Z,14.70
2022-08-11T21:01:45.482Z,15.20
2022-08-11T21:04:30.951Z,14.97
2022-08-11T21:07:23.564Z,15.50
2022-08-11T21:10:22.788Z,15.13
2022-08-11T21:13:25.728Z,15.25
2022-08-11T21:16:26.586Z,14.90
2022-08-11T21:19:16.125Z,14.80
2022-08-11T21:22:03.514Z,14.97
2022-08-11T21:24:49.572Z,14.40
2022-08-11T21:27:36.998Z,15.23
2022-08-11T21:30:22.955Z,15.70
2022-08-11T21:33:08.817Z,15.20
2022-08-11T21:35:54.091Z,14.60
2022-08-11T21:38:39.158Z,14.77
2022-08-11T21:41:25.129Z,14.07
2022-08-11T21:44:12.637Z,14.60
2022-08-11T21:46:58.572Z,14.63
2022-08-11T21:49:44.022Z,13.60
2022-08-11T21:52:29.341Z,13.73
2022-08-11T21:55:15.257Z,14.33
2022-08-11T21:58:00.840Z,14.53
2022-08-11T22:00:47.534Z,13.13
2022-08-11T22:03:36.533Z,12.53
2022-08-11T22:06:35.684Z,14.50
2022-08-11T22:09:21.663Z,13.50
2022-08-11T22:12:29.695Z,14.33
2022-08-11T22:15:11.917Z,13.33
2022-08-11T22:17:58.413Z,13.07
2022-08-11T22:20:45.322Z,13.30
2022-08-11T22:23:35.877Z,13.43
2022-08-11T22:26:22.958Z,13.63
2022-08-11T22:29:09.546Z,13.50
2022-08-11T22:31:55.119Z,13.00
2022-08-11T22:34:53.076Z,13.50
2022-08-11T22:37:39.602Z,13.10
2022-08-11T22:40:26.493Z,13.23
2022-08-11T22:43:11.593Z,13.53
2022-08-11T22:45:57.322Z,13.30
2022-08-11T22:48:43.963Z,12.33
2022-08-11T22:51:31.166Z,13.47
2022-08-11T22:54:16.298Z,13.20
2022-08-11T22:57:01.248Z,13.70
2022-08-11T22:59:46.346Z,13.10
2022-08-11T23:02:32.177Z,12.43
2022-08-11T23:05:18.157Z,13.10
2022-08-11T23:08:04.782Z,13.33
2022-08-11T23:10:50.216Z,13.07
2022-08-11T23:13:35.525Z,13.43
2022-08-11T23:16:21.322Z,13.20
2022-08-11T23:19:06.969Z,13.23
2022-08-11T23:21:53.361Z,13.63
2022-08-11T23:24:40.569Z,13.63
2022-08-11T23:27:27.299Z,13.20
2022-08-11T23:30:17.137Z,13.70
2022-08-11T23:33:05.241Z,13.03
2022-08-11T23:35:56.525Z,13.30
2022-08-11T23:38:43.028Z,14.30
2022-08-11T23:41:29.551Z,13.30
2022-08-11T23:44:14.868Z,13.33
2022-08-11T23:47:00.526Z,12.70
2022-08-11T23:49:45.778Z,12.93
2022-08-11T23:52:30.964Z,13.17
2022-08-11T23:55:16.443Z,12.80
2022-08-11T23:58:02.952Z,13.00
